BEL7FP EBBR-LEBL
Flight info
| Callsign | BEL7FP |
|---|---|
| Flight time | 1h 43m |
| Altitude | 37000 |
| Route | CIV N872 LESDO DCT KOVIN DCT DUCRA UM728 RESMI UN857 DISAK DCT DIRMO DCT VALKU DCT ATSUP DCT MINSO DCT DEGOL DCT PPG DCT ALBER |
| Aircraft | A320/M-SDE3FGHIRWY/LB1 |
Departure
| Time | 2026-05-05 09:39 |
|---|---|
| Airport | Brussels Airport (EBBR) |
Arrival
| Time | 2026-05-05 11:22 |
|---|---|
| Airport | Josep Tarradellas Barcelona-El Prat Airport (LEBL) |
| Time | Latitude | Longitude | Altitude | Speed | Heading |
|---|---|---|---|---|---|
| 2026-05-05 09:02 | 50.90276 | 4.48149 | 118 ft | 0 kts | 155° |
| 2026-05-05 09:11 | 50.90277 | 4.48149 | 121 ft | 0 kts | 155° |
| 2026-05-05 09:13 | 50.90277 | 4.48148 | 121 ft | 0 kts | 155° |
| 2026-05-05 09:24 | 50.90278 | 4.48148 | 121 ft | 0 kts | 155° |
| 2026-05-05 09:26 | 50.90280 | 4.48146 | 117 ft | 3 kts | 155° |
| 2026-05-05 09:26 | 50.90303 | 4.48126 | 119 ft | 4 kts | 138° |
| 2026-05-05 09:26 | 50.90316 | 4.48097 | 117 ft | 4 kts | 80° |
| 2026-05-05 09:27 | 50.90314 | 4.48086 | 117 ft | 0 kts | 65° |
| 2026-05-05 09:27 | 50.90314 | 4.48085 | 117 ft | 0 kts | 65° |
| 2026-05-05 09:30 | 50.90319 | 4.48096 | 117 ft | 3 kts | 57° |
| 2026-05-05 09:30 | 50.90333 | 4.48117 | 119 ft | 3 kts | 36° |
| 2026-05-05 09:30 | 50.90355 | 4.48141 | 120 ft | 5 kts | 33° |
| 2026-05-05 09:31 | 50.90396 | 4.48214 | 121 ft | 13 kts | 62° |
| 2026-05-05 09:31 | 50.90437 | 4.48355 | 121 ft | 15 kts | 65° |
| 2026-05-05 09:31 | 50.90483 | 4.48513 | 117 ft | 17 kts | 65° |
| 2026-05-05 09:31 | 50.90529 | 4.48675 | 119 ft | 14 kts | 65° |
| 2026-05-05 09:32 | 50.90574 | 4.48821 | 119 ft | 16 kts | 63° |
| 2026-05-05 09:32 | 50.90620 | 4.48984 | 119 ft | 16 kts | 68° |
| 2026-05-05 09:32 | 50.90644 | 4.49074 | 120 ft | 8 kts | 75° |
| 2026-05-05 09:32 | 50.90627 | 4.49144 | 121 ft | 5 kts | 140° |
| 2026-05-05 09:33 | 50.90595 | 4.49171 | 123 ft | 8 kts | 155° |
| 2026-05-05 09:33 | 50.90539 | 4.49211 | 120 ft | 8 kts | 156° |
| 2026-05-05 09:33 | 50.90493 | 4.49244 | 123 ft | 7 kts | 155° |
| 2026-05-05 09:33 | 50.90451 | 4.49276 | 119 ft | 6 kts | 154° |
| 2026-05-05 09:34 | 50.90411 | 4.49305 | 122 ft | 11 kts | 156° |
| 2026-05-05 09:34 | 50.90350 | 4.49353 | 124 ft | 8 kts | 146° |
| 2026-05-05 09:34 | 50.90283 | 4.49401 | 124 ft | 11 kts | 182° |
| 2026-05-05 09:34 | 50.90215 | 4.49377 | 125 ft | 14 kts | 194° |
| 2026-05-05 09:35 | 50.90116 | 4.49334 | 131 ft | 13 kts | 194° |
| 2026-05-05 09:35 | 50.89948 | 4.49282 | 135 ft | 12 kts | 169° |
| 2026-05-05 09:35 | 50.89892 | 4.49334 | 137 ft | 11 kts | 149° |
| 2026-05-05 09:36 | 50.89778 | 4.49315 | 144 ft | 21 kts | 195° |
| 2026-05-05 09:36 | 50.89660 | 4.49268 | 151 ft | 12 kts | 194° |
| 2026-05-05 09:36 | 50.89597 | 4.49215 | 155 ft | 14 kts | 215° |
| 2026-05-05 09:36 | 50.89497 | 4.49160 | 160 ft | 17 kts | 194° |
| 2026-05-05 09:37 | 50.89406 | 4.49123 | 164 ft | 10 kts | 195° |
| 2026-05-05 09:37 | 50.89332 | 4.49092 | 167 ft | 9 kts | 194° |
| 2026-05-05 09:37 | 50.89270 | 4.49067 | 170 ft | 12 kts | 194° |
| 2026-05-05 09:37 | 50.89191 | 4.49037 | 175 ft | 9 kts | 187° |
| 2026-05-05 09:38 | 50.89151 | 4.49106 | 176 ft | 9 kts | 85° |
| 2026-05-05 09:38 | 50.89196 | 4.49308 | 176 ft | 47 kts | 69° |
| 2026-05-05 09:38 | 50.89391 | 4.50150 | 177 ft | 113 kts | 70° |
| 2026-05-05 09:38 | 50.89724 | 4.51576 | 254 ft | 155 kts | 71° |
| 2026-05-05 09:39 | 50.90100 | 4.53154 | 963 ft | 151 kts | 64° |
| 2026-05-05 09:39 | 50.90563 | 4.54645 | 1713 ft | 151 kts | 61° |
| 2026-05-05 09:39 | 50.91061 | 4.56165 | 2131 ft | 166 kts | 61° |
| 2026-05-05 09:39 | 50.91633 | 4.57885 | 2444 ft | 186 kts | 62° |
| 2026-05-05 09:40 | 50.92264 | 4.59789 | 2768 ft | 209 kts | 61° |
| 2026-05-05 09:40 | 50.92974 | 4.61923 | 3252 ft | 230 kts | 62° |
| 2026-05-05 09:40 | 50.93724 | 4.64264 | 3889 ft | 243 kts | 66° |
| 2026-05-05 09:40 | 50.94304 | 4.66822 | 4691 ft | 251 kts | 71° |
| 2026-05-05 09:41 | 50.94834 | 4.69485 | 5480 ft | 257 kts | 72° |
| 2026-05-05 09:41 | 50.95354 | 4.72221 | 6364 ft | 259 kts | 72° |
| 2026-05-05 09:41 | 50.95657 | 4.75070 | 7137 ft | 267 kts | 92° |
| 2026-05-05 09:41 | 50.95135 | 4.77919 | 7902 ft | 276 kts | 119° |
| 2026-05-05 09:42 | 50.93820 | 4.80175 | 8639 ft | 286 kts | 147° |
| 2026-05-05 09:42 | 50.91994 | 4.81490 | 9451 ft | 290 kts | 157° |
| 2026-05-05 09:42 | 50.90072 | 4.82384 | 10184 ft | 297 kts | 172° |
| 2026-05-05 09:42 | 50.87942 | 4.82100 | 10443 ft | 322 kts | 198° |
| 2026-05-05 09:43 | 50.85969 | 4.80219 | 10664 ft | 345 kts | 225° |
| 2026-05-05 09:43 | 50.84628 | 4.76971 | 10976 ft | 361 kts | 246° |
| 2026-05-05 09:43 | 50.83585 | 4.73321 | 11588 ft | 367 kts | 246° |
| 2026-05-05 09:43 | 50.82543 | 4.69616 | 12283 ft | 371 kts | 246° |
| 2026-05-05 09:44 | 50.81484 | 4.65857 | 12939 ft | 376 kts | 246° |
| 2026-05-05 09:44 | 50.80399 | 4.62040 | 13563 ft | 381 kts | 245° |
| 2026-05-05 09:44 | 50.79300 | 4.58203 | 14203 ft | 384 kts | 245° |
| 2026-05-05 09:44 | 50.78190 | 4.54349 | 14829 ft | 387 kts | 245° |
| 2026-05-05 09:45 | 50.77069 | 4.50468 | 15441 ft | 390 kts | 244° |
| 2026-05-05 09:45 | 50.75939 | 4.46571 | 16058 ft | 392 kts | 244° |
| 2026-05-05 09:45 | 50.74799 | 4.42647 | 16727 ft | 393 kts | 244° |
| 2026-05-05 09:45 | 50.73655 | 4.38706 | 17336 ft | 396 kts | 244° |
| 2026-05-05 09:46 | 50.72503 | 4.34735 | 17947 ft | 399 kts | 243° |
| 2026-05-05 09:46 | 50.71345 | 4.30744 | 18530 ft | 401 kts | 243° |
| 2026-05-05 09:46 | 50.70179 | 4.26735 | 19069 ft | 403 kts | 243° |
| 2026-05-05 09:46 | 50.69002 | 4.22697 | 19587 ft | 406 kts | 243° |
| 2026-05-05 09:47 | 50.67816 | 4.18642 | 20108 ft | 409 kts | 243° |
| 2026-05-05 09:47 | 50.66636 | 4.14618 | 20619 ft | 411 kts | 244° |
| 2026-05-05 09:47 | 50.65433 | 4.10510 | 21113 ft | 414 kts | 243° |
| 2026-05-05 09:47 | 50.64221 | 4.06380 | 21581 ft | 417 kts | 243° |
| 2026-05-05 09:48 | 50.62995 | 4.02226 | 22054 ft | 419 kts | 244° |
| 2026-05-05 09:48 | 50.61760 | 3.98057 | 22537 ft | 421 kts | 244° |
| 2026-05-05 09:48 | 50.60514 | 3.93857 | 22989 ft | 424 kts | 243° |
| 2026-05-05 09:48 | 50.59167 | 3.89710 | 23424 ft | 425 kts | 236° |
| 2026-05-05 09:49 | 50.57407 | 3.85972 | 23788 ft | 425 kts | 226° |
| 2026-05-05 09:49 | 50.55259 | 3.82789 | 24161 ft | 424 kts | 216° |
| 2026-05-05 09:49 | 50.52803 | 3.80253 | 24536 ft | 423 kts | 206° |
| 2026-05-05 09:49 | 50.50128 | 3.78321 | 24903 ft | 423 kts | 202° |
| 2026-05-05 09:50 | 50.47422 | 3.76478 | 25288 ft | 424 kts | 202° |
| 2026-05-05 09:50 | 50.44712 | 3.74633 | 25668 ft | 425 kts | 202° |
| 2026-05-05 09:50 | 50.41999 | 3.72787 | 26008 ft | 427 kts | 202° |
| 2026-05-05 09:50 | 50.39272 | 3.70933 | 26352 ft | 428 kts | 202° |
| 2026-05-05 09:51 | 50.36538 | 3.69080 | 26696 ft | 429 kts | 202° |
| 2026-05-05 09:51 | 50.33826 | 3.67243 | 26994 ft | 431 kts | 202° |
| 2026-05-05 09:51 | 50.31031 | 3.65354 | 27302 ft | 433 kts | 202° |
| 2026-05-05 09:51 | 50.28300 | 3.63511 | 27602 ft | 434 kts | 202° |
| 2026-05-05 09:52 | 50.25524 | 3.61637 | 27901 ft | 435 kts | 202° |
| 2026-05-05 09:52 | 50.22733 | 3.59757 | 28188 ft | 436 kts | 202° |
| 2026-05-05 09:52 | 50.19932 | 3.57899 | 28461 ft | 437 kts | 202° |
| 2026-05-05 09:52 | 50.17126 | 3.56032 | 28722 ft | 438 kts | 203° |
| 2026-05-05 09:53 | 50.14320 | 3.54143 | 28977 ft | 439 kts | 203° |
| 2026-05-05 09:53 | 50.11516 | 3.52247 | 29298 ft | 439 kts | 202° |
| 2026-05-05 09:53 | 50.08722 | 3.50360 | 29663 ft | 437 kts | 202° |
| 2026-05-05 09:53 | 50.05969 | 3.48508 | 30018 ft | 436 kts | 202° |
| 2026-05-05 09:54 | 50.03192 | 3.46647 | 30324 ft | 434 kts | 202° |
| 2026-05-05 09:54 | 50.00422 | 3.44797 | 30646 ft | 432 kts | 202° |
| 2026-05-05 09:54 | 49.97665 | 3.42959 | 30970 ft | 430 kts | 202° |
| 2026-05-05 09:54 | 49.94917 | 3.41128 | 31295 ft | 428 kts | 202° |
| 2026-05-05 09:55 | 49.92184 | 3.39310 | 31631 ft | 427 kts | 202° |
| 2026-05-05 09:55 | 49.89462 | 3.37506 | 31960 ft | 424 kts | 202° |
| 2026-05-05 09:55 | 49.86752 | 3.35712 | 32292 ft | 423 kts | 202° |
| 2026-05-05 09:55 | 49.84053 | 3.33929 | 32618 ft | 421 kts | 202° |
| 2026-05-05 09:56 | 49.81361 | 3.32154 | 32932 ft | 419 kts | 202° |
| 2026-05-05 09:56 | 49.78680 | 3.30390 | 33244 ft | 418 kts | 202° |
| 2026-05-05 09:56 | 49.76010 | 3.28627 | 33568 ft | 416 kts | 202° |
| 2026-05-05 09:56 | 49.73379 | 3.26889 | 33870 ft | 415 kts | 202° |
| 2026-05-05 09:57 | 49.70715 | 3.25135 | 34131 ft | 414 kts | 202° |
| 2026-05-05 09:57 | 49.68053 | 3.23387 | 34356 ft | 414 kts | 202° |
| 2026-05-05 09:57 | 49.65394 | 3.21641 | 34548 ft | 415 kts | 202° |
| 2026-05-05 09:57 | 49.62737 | 3.19896 | 34744 ft | 416 kts | 202° |
| 2026-05-05 09:58 | 49.60074 | 3.18149 | 34943 ft | 416 kts | 202° |
| 2026-05-05 09:58 | 49.57409 | 3.16401 | 35138 ft | 416 kts | 202° |
| 2026-05-05 09:58 | 49.54771 | 3.14675 | 35317 ft | 417 kts | 202° |
| 2026-05-05 09:58 | 49.52096 | 3.12929 | 35504 ft | 417 kts | 202° |
| 2026-05-05 09:59 | 49.49423 | 3.11160 | 35661 ft | 419 kts | 205° |
| 2026-05-05 09:59 | 49.46895 | 3.08936 | 35813 ft | 420 kts | 212° |
| 2026-05-05 09:59 | 49.44458 | 3.06441 | 35983 ft | 420 kts | 212° |
| 2026-05-05 09:59 | 49.42023 | 3.03960 | 36145 ft | 421 kts | 212° |
| 2026-05-05 10:00 | 49.39582 | 3.01479 | 36321 ft | 421 kts | 212° |
| 2026-05-05 10:00 | 49.37139 | 2.99002 | 36481 ft | 421 kts | 212° |
| 2026-05-05 10:00 | 49.34694 | 2.96524 | 36646 ft | 421 kts | 212° |
| 2026-05-05 10:00 | 49.32247 | 2.94048 | 36817 ft | 421 kts | 212° |
| 2026-05-05 10:01 | 49.27330 | 2.89085 | 36874 ft | 424 kts | 212° |
| 2026-05-05 10:01 | 49.22384 | 2.84108 | 36874 ft | 426 kts | 212° |
| 2026-05-05 10:02 | 49.17421 | 2.79117 | 36872 ft | 427 kts | 212° |
| 2026-05-05 10:02 | 49.12465 | 2.74142 | 36867 ft | 426 kts | 212° |
| 2026-05-05 10:03 | 49.07527 | 2.69206 | 36868 ft | 426 kts | 212° |
| 2026-05-05 10:03 | 49.02529 | 2.64219 | 36860 ft | 427 kts | 212° |
| 2026-05-05 10:04 | 48.97572 | 2.59286 | 36861 ft | 429 kts | 211° |
| 2026-05-05 10:04 | 48.92562 | 2.54314 | 36857 ft | 430 kts | 211° |
| 2026-05-05 10:05 | 48.87541 | 2.49334 | 36860 ft | 431 kts | 211° |
| 2026-05-05 10:05 | 48.82510 | 2.44365 | 36864 ft | 431 kts | 211° |
| 2026-05-05 10:06 | 48.78299 | 2.40207 | 36862 ft | 431 kts | 211° |
| 2026-05-05 10:06 | 48.73298 | 2.35282 | 36866 ft | 431 kts | 211° |
| 2026-05-05 10:07 | 48.68254 | 2.30325 | 36869 ft | 432 kts | 211° |
| 2026-05-05 10:07 | 48.63206 | 2.25386 | 36871 ft | 432 kts | 211° |
| 2026-05-05 10:08 | 48.58112 | 2.20573 | 36865 ft | 431 kts | 205° |
| 2026-05-05 10:08 | 48.52450 | 2.17746 | 36855 ft | 429 kts | 191° |
| 2026-05-05 10:09 | 48.46601 | 2.15875 | 36846 ft | 429 kts | 191° |
| 2026-05-05 10:09 | 48.40786 | 2.13998 | 36851 ft | 430 kts | 192° |
| 2026-05-05 10:10 | 48.34927 | 2.12104 | 36842 ft | 430 kts | 191° |
| 2026-05-05 10:10 | 48.29037 | 2.10479 | 36839 ft | 430 kts | 183° |
| 2026-05-05 10:11 | 48.23085 | 2.11112 | 36827 ft | 430 kts | 172° |
| 2026-05-05 10:11 | 48.17157 | 2.12365 | 36825 ft | 430 kts | 172° |
| 2026-05-05 10:12 | 48.11237 | 2.13296 | 36812 ft | 431 kts | 178° |
| 2026-05-05 10:12 | 48.05240 | 2.13630 | 36820 ft | 431 kts | 178° |
| 2026-05-05 10:13 | 47.99248 | 2.13979 | 36829 ft | 431 kts | 178° |
| 2026-05-05 10:13 | 47.93235 | 2.14343 | 36835 ft | 432 kts | 178° |
| 2026-05-05 10:14 | 47.87228 | 2.14703 | 36840 ft | 432 kts | 178° |
| 2026-05-05 10:14 | 47.81215 | 2.15060 | 36829 ft | 432 kts | 178° |
| 2026-05-05 10:15 | 47.75212 | 2.15414 | 36832 ft | 431 kts | 178° |
| 2026-05-05 10:15 | 47.69214 | 2.15758 | 36842 ft | 431 kts | 178° |
| 2026-05-05 10:16 | 47.63219 | 2.16096 | 36842 ft | 431 kts | 178° |
| 2026-05-05 10:16 | 47.57226 | 2.16449 | 36848 ft | 431 kts | 178° |
| 2026-05-05 10:17 | 47.51260 | 2.16798 | 36852 ft | 431 kts | 178° |
| 2026-05-05 10:17 | 47.45265 | 2.17136 | 36849 ft | 431 kts | 178° |
| 2026-05-05 10:18 | 47.39270 | 2.17474 | 36847 ft | 430 kts | 178° |
| 2026-05-05 10:18 | 47.33280 | 2.17828 | 36854 ft | 430 kts | 178° |
| 2026-05-05 10:19 | 47.27284 | 2.18176 | 36863 ft | 431 kts | 178° |
| 2026-05-05 10:19 | 47.21294 | 2.18516 | 36859 ft | 431 kts | 178° |
| 2026-05-05 10:20 | 47.15307 | 2.18856 | 36861 ft | 430 kts | 178° |
| 2026-05-05 10:20 | 47.09332 | 2.19493 | 36856 ft | 431 kts | 169° |
| 2026-05-05 10:21 | 47.03669 | 2.22294 | 36854 ft | 433 kts | 160° |
| 2026-05-05 10:21 | 46.98070 | 2.25570 | 36854 ft | 433 kts | 160° |
| 2026-05-05 10:22 | 46.92464 | 2.28832 | 36861 ft | 434 kts | 160° |
| 2026-05-05 10:22 | 46.86855 | 2.32099 | 36860 ft | 433 kts | 160° |
| 2026-05-05 10:23 | 46.81238 | 2.35356 | 36862 ft | 434 kts | 160° |
| 2026-05-05 10:23 | 46.75630 | 2.38607 | 36872 ft | 434 kts | 160° |
| 2026-05-05 10:24 | 46.70016 | 2.41859 | 36881 ft | 435 kts | 160° |
| 2026-05-05 10:24 | 46.64397 | 2.45094 | 36859 ft | 434 kts | 160° |
| 2026-05-05 10:25 | 46.58785 | 2.48315 | 36879 ft | 433 kts | 160° |
| 2026-05-05 10:25 | 46.53171 | 2.51530 | 36886 ft | 433 kts | 161° |
| 2026-05-05 10:26 | 46.47590 | 2.54724 | 36885 ft | 434 kts | 161° |
| 2026-05-05 10:26 | 46.41980 | 2.57944 | 36891 ft | 434 kts | 161° |
| 2026-05-05 10:27 | 46.36362 | 2.61147 | 36896 ft | 434 kts | 161° |
| 2026-05-05 10:27 | 46.30746 | 2.64350 | 36892 ft | 434 kts | 161° |
| 2026-05-05 10:28 | 46.25116 | 2.67534 | 36900 ft | 434 kts | 161° |
| 2026-05-05 10:28 | 46.19485 | 2.70709 | 36902 ft | 434 kts | 161° |
| 2026-05-05 10:29 | 46.13859 | 2.73886 | 36897 ft | 434 kts | 161° |
| 2026-05-05 10:29 | 46.08221 | 2.77071 | 36893 ft | 435 kts | 161° |
| 2026-05-05 10:30 | 46.02585 | 2.80238 | 36888 ft | 435 kts | 161° |
| 2026-05-05 10:30 | 45.96972 | 2.83364 | 36903 ft | 434 kts | 162° |
| 2026-05-05 10:31 | 45.91291 | 2.86364 | 36908 ft | 435 kts | 162° |
| 2026-05-05 10:31 | 45.85596 | 2.89324 | 36916 ft | 435 kts | 162° |
| 2026-05-05 10:32 | 45.79905 | 2.92303 | 36922 ft | 435 kts | 162° |
| 2026-05-05 10:32 | 45.74135 | 2.94848 | 36924 ft | 432 kts | 173° |
| 2026-05-05 10:33 | 45.68167 | 2.95125 | 36913 ft | 429 kts | 183° |
| 2026-05-05 10:33 | 45.62231 | 2.94953 | 36915 ft | 429 kts | 183° |
| 2026-05-05 10:34 | 45.56253 | 2.94787 | 36922 ft | 430 kts | 183° |
| 2026-05-05 10:34 | 45.50268 | 2.94633 | 36918 ft | 430 kts | 183° |
| 2026-05-05 10:35 | 45.44281 | 2.94481 | 36926 ft | 430 kts | 183° |
| 2026-05-05 10:35 | 45.38297 | 2.94317 | 36930 ft | 430 kts | 183° |
| 2026-05-05 10:36 | 45.32319 | 2.94150 | 36922 ft | 429 kts | 184° |
| 2026-05-05 10:36 | 45.26381 | 2.93990 | 36926 ft | 430 kts | 183° |
| 2026-05-05 10:37 | 45.20386 | 2.93835 | 36926 ft | 430 kts | 183° |
| 2026-05-05 10:37 | 45.14401 | 2.93682 | 36926 ft | 430 kts | 184° |
| 2026-05-05 10:38 | 45.08413 | 2.93527 | 36931 ft | 430 kts | 184° |
| 2026-05-05 10:38 | 45.02441 | 2.93376 | 36940 ft | 429 kts | 184° |
| 2026-05-05 10:39 | 44.96498 | 2.93235 | 36946 ft | 429 kts | 184° |
| 2026-05-05 10:39 | 44.90519 | 2.93072 | 36962 ft | 429 kts | 184° |
| 2026-05-05 10:40 | 44.84551 | 2.92910 | 36959 ft | 429 kts | 185° |
| 2026-05-05 10:40 | 44.78599 | 2.92575 | 36964 ft | 428 kts | 186° |
| 2026-05-05 10:41 | 44.72659 | 2.92077 | 36966 ft | 428 kts | 187° |
| 2026-05-05 10:41 | 44.66717 | 2.91591 | 36966 ft | 428 kts | 186° |
| 2026-05-05 10:42 | 44.57795 | 2.90934 | 36954 ft | 428 kts | 186° |
| 2026-05-05 10:43 | 44.51894 | 2.90511 | 36970 ft | 427 kts | 186° |
| 2026-05-05 10:43 | 44.45965 | 2.90082 | 36974 ft | 426 kts | 186° |
| 2026-05-05 10:44 | 44.40036 | 2.89650 | 36982 ft | 426 kts | 186° |
| 2026-05-05 10:44 | 44.34108 | 2.89221 | 36974 ft | 426 kts | 187° |
| 2026-05-05 10:45 | 44.28185 | 2.88796 | 36985 ft | 426 kts | 187° |
| 2026-05-05 10:45 | 44.22271 | 2.88368 | 36985 ft | 425 kts | 187° |
| 2026-05-05 10:46 | 44.16404 | 2.87950 | 36973 ft | 425 kts | 187° |
| 2026-05-05 10:46 | 44.10502 | 2.87540 | 36984 ft | 424 kts | 187° |
| 2026-05-05 10:47 | 44.04612 | 2.87118 | 36979 ft | 423 kts | 187° |
| 2026-05-05 10:47 | 43.98724 | 2.86693 | 36969 ft | 423 kts | 187° |
| 2026-05-05 10:48 | 43.92849 | 2.86270 | 36981 ft | 422 kts | 188° |
| 2026-05-05 10:48 | 43.86980 | 2.85852 | 36992 ft | 422 kts | 187° |
| 2026-05-05 10:49 | 43.81111 | 2.85443 | 36991 ft | 421 kts | 187° |
| 2026-05-05 10:49 | 43.75281 | 2.85120 | 36983 ft | 422 kts | 186° |
| 2026-05-05 10:50 | 43.69403 | 2.85201 | 36996 ft | 423 kts | 184° |
| 2026-05-05 10:50 | 43.63516 | 2.85406 | 36999 ft | 422 kts | 184° |
| 2026-05-05 10:51 | 43.57650 | 2.85553 | 36973 ft | 421 kts | 185° |
| 2026-05-05 10:51 | 43.51812 | 2.85630 | 36588 ft | 417 kts | 185° |
| 2026-05-05 10:51 | 43.48916 | 2.85662 | 36340 ft | 416 kts | 186° |
| 2026-05-05 10:52 | 43.46026 | 2.85695 | 36083 ft | 415 kts | 186° |
| 2026-05-05 10:52 | 43.43136 | 2.85735 | 35834 ft | 414 kts | 186° |
| 2026-05-05 10:52 | 43.40258 | 2.85778 | 35589 ft | 414 kts | 186° |
| 2026-05-05 10:52 | 43.37382 | 2.85820 | 35309 ft | 412 kts | 186° |
| 2026-05-05 10:53 | 43.34565 | 2.85861 | 35073 ft | 410 kts | 186° |
| 2026-05-05 10:53 | 43.31713 | 2.85902 | 34831 ft | 409 kts | 187° |
| 2026-05-05 10:53 | 43.28868 | 2.85942 | 34560 ft | 408 kts | 187° |
| 2026-05-05 10:53 | 43.26042 | 2.85983 | 34146 ft | 405 kts | 187° |
| 2026-05-05 10:54 | 43.23220 | 2.86025 | 33913 ft | 405 kts | 187° |
| 2026-05-05 10:54 | 43.20402 | 2.86065 | 33642 ft | 405 kts | 187° |
| 2026-05-05 10:54 | 43.17575 | 2.86103 | 33340 ft | 404 kts | 188° |
| 2026-05-05 10:54 | 43.15712 | 2.86128 | 33161 ft | 403 kts | 188° |
| 2026-05-05 10:55 | 43.12904 | 2.86167 | 32890 ft | 403 kts | 188° |
| 2026-05-05 10:55 | 43.10102 | 2.86207 | 32626 ft | 403 kts | 188° |
| 2026-05-05 10:55 | 43.06378 | 2.86262 | 32283 ft | 404 kts | 188° |
| 2026-05-05 10:55 | 43.03572 | 2.86303 | 32025 ft | 404 kts | 188° |
| 2026-05-05 10:56 | 43.01672 | 2.86332 | 31854 ft | 404 kts | 188° |
| 2026-05-05 10:56 | 42.97947 | 2.86388 | 31486 ft | 404 kts | 187° |
| 2026-05-05 10:56 | 42.96050 | 2.86416 | 31316 ft | 404 kts | 188° |
| 2026-05-05 10:56 | 42.93239 | 2.86458 | 31026 ft | 404 kts | 188° |
| 2026-05-05 10:57 | 42.90426 | 2.86501 | 30651 ft | 404 kts | 188° |
| 2026-05-05 10:57 | 42.87645 | 2.86541 | 30284 ft | 405 kts | 188° |
| 2026-05-05 10:57 | 42.84829 | 2.86579 | 29905 ft | 406 kts | 188° |
| 2026-05-05 10:57 | 42.81999 | 2.86616 | 29476 ft | 407 kts | 188° |
| 2026-05-05 10:58 | 42.79161 | 2.86652 | 29053 ft | 408 kts | 188° |
| 2026-05-05 10:58 | 42.76313 | 2.86687 | 28636 ft | 410 kts | 187° |
| 2026-05-05 10:58 | 42.73482 | 2.86529 | 28198 ft | 405 kts | 192° |
| 2026-05-05 10:58 | 42.70683 | 2.86203 | 27769 ft | 404 kts | 192° |
| 2026-05-05 10:59 | 42.67881 | 2.85873 | 27344 ft | 402 kts | 192° |
| 2026-05-05 10:59 | 42.65102 | 2.85544 | 26925 ft | 400 kts | 192° |
| 2026-05-05 10:59 | 42.62337 | 2.85219 | 26518 ft | 398 kts | 192° |
| 2026-05-05 10:59 | 42.59582 | 2.84898 | 26116 ft | 396 kts | 192° |
| 2026-05-05 11:00 | 42.56834 | 2.84578 | 25715 ft | 395 kts | 191° |
| 2026-05-05 11:00 | 42.54101 | 2.84262 | 25388 ft | 394 kts | 192° |
| 2026-05-05 11:00 | 42.51375 | 2.83945 | 25143 ft | 389 kts | 192° |
| 2026-05-05 11:00 | 42.48726 | 2.83643 | 24952 ft | 374 kts | 192° |
| 2026-05-05 11:01 | 42.46188 | 2.83360 | 24950 ft | 360 kts | 192° |
| 2026-05-05 11:01 | 42.43736 | 2.82894 | 24954 ft | 352 kts | 197° |
| 2026-05-05 11:01 | 42.41347 | 2.82291 | 24550 ft | 348 kts | 197° |
| 2026-05-05 11:01 | 42.38976 | 2.81697 | 24027 ft | 346 kts | 197° |
| 2026-05-05 11:02 | 42.36619 | 2.81111 | 23517 ft | 344 kts | 197° |
| 2026-05-05 11:02 | 42.34254 | 2.80525 | 23139 ft | 345 kts | 197° |
| 2026-05-05 11:02 | 42.31893 | 2.79947 | 22752 ft | 345 kts | 196° |
| 2026-05-05 11:02 | 42.29538 | 2.79371 | 22369 ft | 343 kts | 196° |
| 2026-05-05 11:03 | 42.27191 | 2.78798 | 21996 ft | 342 kts | 196° |
| 2026-05-05 11:03 | 42.24851 | 2.78227 | 21615 ft | 341 kts | 196° |
| 2026-05-05 11:03 | 42.22527 | 2.77661 | 21234 ft | 339 kts | 195° |
| 2026-05-05 11:03 | 42.20236 | 2.77102 | 20865 ft | 338 kts | 195° |
| 2026-05-05 11:04 | 42.17926 | 2.76538 | 20488 ft | 337 kts | 195° |
| 2026-05-05 11:04 | 42.15642 | 2.75891 | 20102 ft | 332 kts | 201° |
| 2026-05-05 11:04 | 42.13542 | 2.74689 | 19745 ft | 326 kts | 213° |
| 2026-05-05 11:04 | 42.11712 | 2.72928 | 19384 ft | 322 kts | 223° |
| 2026-05-05 11:05 | 42.10173 | 2.70734 | 19033 ft | 321 kts | 229° |
| 2026-05-05 11:05 | 42.08700 | 2.68482 | 18675 ft | 321 kts | 229° |
| 2026-05-05 11:05 | 42.07221 | 2.66230 | 18335 ft | 320 kts | 229° |
| 2026-05-05 11:05 | 42.05745 | 2.63985 | 17933 ft | 320 kts | 229° |
| 2026-05-05 11:06 | 42.04272 | 2.61744 | 17575 ft | 320 kts | 229° |
| 2026-05-05 11:06 | 42.02802 | 2.59512 | 17217 ft | 318 kts | 229° |
| 2026-05-05 11:06 | 42.01336 | 2.57287 | 16865 ft | 316 kts | 229° |
| 2026-05-05 11:06 | 41.99898 | 2.55105 | 16518 ft | 316 kts | 228° |
| 2026-05-05 11:07 | 41.98443 | 2.52898 | 16166 ft | 316 kts | 228° |
| 2026-05-05 11:07 | 41.96983 | 2.50689 | 15816 ft | 316 kts | 228° |
| 2026-05-05 11:07 | 41.95520 | 2.48480 | 15445 ft | 316 kts | 229° |
| 2026-05-05 11:07 | 41.94062 | 2.46280 | 15104 ft | 315 kts | 227° |
| 2026-05-05 11:08 | 41.92604 | 2.44082 | 14767 ft | 314 kts | 228° |
| 2026-05-05 11:08 | 41.91151 | 2.41895 | 14419 ft | 313 kts | 228° |
| 2026-05-05 11:08 | 41.89703 | 2.39715 | 14070 ft | 312 kts | 228° |
| 2026-05-05 11:08 | 41.88276 | 2.37561 | 13724 ft | 311 kts | 228° |
| 2026-05-05 11:09 | 41.86838 | 2.35390 | 13353 ft | 311 kts | 228° |
| 2026-05-05 11:09 | 41.85402 | 2.33224 | 13009 ft | 310 kts | 228° |
| 2026-05-05 11:09 | 41.83972 | 2.31070 | 12665 ft | 309 kts | 228° |
| 2026-05-05 11:09 | 41.82543 | 2.28922 | 12339 ft | 307 kts | 227° |
| 2026-05-05 11:10 | 41.81125 | 2.26795 | 11996 ft | 305 kts | 228° |
| 2026-05-05 11:10 | 41.79715 | 2.24683 | 11659 ft | 304 kts | 228° |
| 2026-05-05 11:10 | 41.78306 | 2.22571 | 11325 ft | 302 kts | 227° |
| 2026-05-05 11:10 | 41.76902 | 2.20466 | 10997 ft | 301 kts | 227° |
| 2026-05-05 11:11 | 41.75526 | 2.18406 | 10658 ft | 299 kts | 228° |
| 2026-05-05 11:11 | 41.74141 | 2.16334 | 10336 ft | 297 kts | 228° |
| 2026-05-05 11:11 | 41.72795 | 2.14316 | 10214 ft | 285 kts | 227° |
| 2026-05-05 11:11 | 41.71501 | 2.12376 | 10094 ft | 275 kts | 228° |
| 2026-05-05 11:12 | 41.70142 | 2.10633 | 9934 ft | 267 kts | 215° |
| 2026-05-05 11:12 | 41.68480 | 2.09556 | 9867 ft | 268 kts | 198° |
| 2026-05-05 11:12 | 41.66627 | 2.09232 | 9505 ft | 271 kts | 180° |
| 2026-05-05 11:12 | 41.64749 | 2.09450 | 9160 ft | 270 kts | 178° |
| 2026-05-05 11:13 | 41.62870 | 2.09684 | 8820 ft | 271 kts | 178° |
| 2026-05-05 11:13 | 41.60991 | 2.09913 | 8463 ft | 270 kts | 178° |
| 2026-05-05 11:13 | 41.59121 | 2.10139 | 8122 ft | 269 kts | 178° |
| 2026-05-05 11:13 | 41.57264 | 2.10358 | 7776 ft | 268 kts | 178° |
| 2026-05-05 11:14 | 41.55409 | 2.10584 | 7430 ft | 268 kts | 175° |
| 2026-05-05 11:14 | 41.53664 | 2.11436 | 7085 ft | 273 kts | 148° |
| 2026-05-05 11:14 | 41.52441 | 2.13375 | 6730 ft | 280 kts | 116° |
| 2026-05-05 11:14 | 41.52097 | 2.15896 | 6352 ft | 284 kts | 91° |
| 2026-05-05 11:15 | 41.52170 | 2.18533 | 6003 ft | 284 kts | 89° |
| 2026-05-05 11:15 | 41.52254 | 2.21097 | 5809 ft | 268 kts | 90° |
| 2026-05-05 11:15 | 41.52185 | 2.23499 | 5570 ft | 252 kts | 105° |
| 2026-05-05 11:15 | 41.51491 | 2.25557 | 5311 ft | 238 kts | 131° |
| 2026-05-05 11:16 | 41.50298 | 2.27049 | 5187 ft | 235 kts | 152° |
| 2026-05-05 11:16 | 41.48830 | 2.27989 | 5055 ft | 235 kts | 158° |
| 2026-05-05 11:16 | 41.47367 | 2.28865 | 4861 ft | 226 kts | 158° |
| 2026-05-05 11:16 | 41.45945 | 2.29722 | 4595 ft | 223 kts | 158° |
| 2026-05-05 11:17 | 41.44519 | 2.30504 | 4338 ft | 220 kts | 167° |
| 2026-05-05 11:17 | 41.43033 | 2.30979 | 4098 ft | 220 kts | 169° |
| 2026-05-05 11:17 | 41.41569 | 2.31438 | 3859 ft | 217 kts | 170° |
| 2026-05-05 11:17 | 41.40112 | 2.31889 | 3616 ft | 213 kts | 172° |
| 2026-05-05 11:18 | 41.38709 | 2.31827 | 3408 ft | 200 kts | 202° |
| 2026-05-05 11:18 | 41.37609 | 2.30805 | 3263 ft | 192 kts | 233° |
| 2026-05-05 11:18 | 41.36993 | 2.29237 | 3076 ft | 192 kts | 245° |
| 2026-05-05 11:18 | 41.36451 | 2.27631 | 2801 ft | 186 kts | 246° |
| 2026-05-05 11:19 | 41.35929 | 2.26092 | 2551 ft | 180 kts | 245° |
| 2026-05-05 11:19 | 41.35412 | 2.24572 | 2320 ft | 181 kts | 244° |
| 2026-05-05 11:19 | 41.34894 | 2.23049 | 2078 ft | 179 kts | 245° |
| 2026-05-05 11:19 | 41.34401 | 2.21599 | 1843 ft | 164 kts | 244° |
| 2026-05-05 11:20 | 41.33955 | 2.20288 | 1652 ft | 146 kts | 244° |
| 2026-05-05 11:20 | 41.33551 | 2.19103 | 1451 ft | 137 kts | 244° |
| 2026-05-05 11:20 | 41.33159 | 2.17955 | 1269 ft | 138 kts | 244° |
| 2026-05-05 11:20 | 41.32769 | 2.16811 | 1084 ft | 134 kts | 243° |
| 2026-05-05 11:21 | 41.32383 | 2.15662 | 908 ft | 136 kts | 246° |
| 2026-05-05 11:21 | 41.31993 | 2.14512 | 751 ft | 136 kts | 244° |
| 2026-05-05 11:21 | 41.31594 | 2.13359 | 567 ft | 137 kts | 244° |
| 2026-05-05 11:21 | 41.31201 | 2.12213 | 371 ft | 139 kts | 244° |
| 2026-05-05 11:22 | 41.30799 | 2.11033 | 174 ft | 140 kts | 244° |
| 2026-05-05 11:22 | 41.30399 | 2.09863 | 8 ft | 132 kts | 244° |
| 2026-05-05 11:22 | 41.30077 | 2.08928 | 5 ft | 87 kts | 245° |
| 2026-05-05 11:22 | 41.29885 | 2.08369 | 7 ft | 44 kts | 245° |
| 2026-05-05 11:23 | 41.29770 | 2.08054 | 5 ft | 29 kts | 236° |
| 2026-05-05 11:23 | 41.29656 | 2.07890 | 3 ft | 15 kts | 216° |
| 2026-05-05 11:23 | 41.29604 | 2.07840 | 4 ft | 0 kts | 214° |
| 2026-05-05 11:24 | 41.29600 | 2.07836 | 4 ft | 4 kts | 214° |
| 2026-05-05 11:24 | 41.29566 | 2.07809 | 4 ft | 6 kts | 207° |
| 2026-05-05 11:24 | 41.29520 | 2.07797 | 3 ft | 9 kts | 178° |
| 2026-05-05 11:24 | 41.29454 | 2.07829 | 3 ft | 11 kts | 156° |
| 2026-05-05 11:25 | 41.29378 | 2.07874 | 3 ft | 13 kts | 156° |
| 2026-05-05 11:25 | 41.29293 | 2.07925 | 3 ft | 11 kts | 155° |
| 2026-05-05 11:25 | 41.29251 | 2.07939 | 3 ft | 4 kts | 193° |
| 2026-05-05 11:25 | 41.29222 | 2.07894 | 3 ft | 10 kts | 243° |
| 2026-05-05 11:26 | 41.29195 | 2.07816 | 3 ft | 9 kts | 245° |
| 2026-05-05 11:26 | 41.29166 | 2.07764 | 3 ft | 6 kts | 199° |
| 2026-05-05 11:26 | 41.29132 | 2.07779 | 4 ft | 5 kts | 152° |
| 2026-05-05 11:26 | 41.29111 | 2.07793 | 3 ft | 2 kts | 154° |
| 2026-05-05 11:27 | 41.29105 | 2.07796 | 3 ft | 0 kts | 154° |
| 2026-05-05 11:27 | 41.29100 | 2.07799 | 3 ft | 0 kts | 154° |